<< Go Back

St. Valentine
Date: Sep. 21, 2014
Results by Everal Race Management
Contact for Race Timing

Other distances in this race:
 
St. Valentine 5k Run/Walk

5k Run/Walk

Age Group Results

September 21, 2014

Results Provided by Everal Race Management

Male Overall Winners
Total
Place Name City Bib No Age Overall Time Pace
1 Matt Leper 203 15 1 18:27 5:57/M
2 Beau Bushart Redford MI 9 18 2 20:00 6:27/M
3 Dave Mann Detroit MI 46 53 3 20:13 6:31/M


Female Overall Winners
Total
Place Name City Bib No Age Overall Time Pace
1 Evelyn Kowarik 220 21 4 20:53 6:44/M
2 Lindsay Parsell Troy MI 171 36 6 21:50 7:03/M
3 Erin Hagarty Livonia MI 134 11 14 24:53 8:02/M


Male Seniors (65 & up) Winners
Total
Place Name City Bib No Age Overall Time Pace
1 Wayne Manlon 208 65 28 27:52 8:59/M
2 Ray Mote Redford MI 62 66 35 29:41 9:35/M
3 Edward Obrien Livonia MI 103 78 80 47:44 15:24/M


Female Seniors (65 & up) Winners
Total
Place Name City Bib No Age Overall Time Pace
1 Ann Brighton Livonia MI 67 71 105 55:01 17:45/M
2 Nancy Wright 216 71 113 56:22 18:11/M
3 Carole Willey Redford MI 56 68 166 1:06:30 21:27/M


No age provided
Total
Place Name City Bib No Age Overall Time Pace
1 ? ? 229 0 169 1:06:41 21:31/M


No age provided
Total
Place Name City Bib No Age Overall Time Pace
1 Penny Gehan Livonia MI 161 0 94 50:14 16:12/M
2 Mary Suchenek Redford MI 47 0 174 1:09:01 22:16/M
3 Joan Martinuzzi Redford MI 54 0 175 1:09:05 22:17/M


Male 9 & under
Total
Place Name City Bib No Age Overall Time Pace
1 Calvin Parsell Troy MI 224 9 39 30:11 9:44/M
2 Charley Nelson-Pawlik Livonia MI 119 7 67 41:29 13:23/M
3 Devin Messerang Livonia MI 33 9 76 46:19 14:56/M
4 Toby Nelson-Pawlik Livonia MI 120 9 120 57:03 18:24/M
5 Cameron Rehling 206 5 137 1:01:10 19:44/M
6 Ethan Betzler Redford MI 13 2 147 1:02:15 20:05/M
7 Joseph IV Board Redford MI 23 5 164 1:04:23 20:46/M


Female 9 & under
Total
Place Name City Bib No Age Overall Time Pace
1 Addison Parsell Troy MI 170 9 21 26:55 8:41/M
2 Grace Surato Mason MI 173 7 68 43:51 14:09/M
3 Keegan Parsell Troy MI 169 7 69 43:52 14:09/M
4 Cadence Surato Mason MI 174 9 70 44:27 14:20/M
5 Dorie Nelson-Pawlik Livonia MI 117 3 77 47:16 15:15/M
6 Marie Nelson-Pawlik Livonia MI 118 5 78 47:17 15:15/M
7 Ryley Kline Redford MI 87 7 83 48:53 15:46/M
8 Abby Carr Livonia MI 63 8 95 52:38 16:59/M
9 Emily Olesky Livonia MI 6 6 103 54:28 17:34/M
10 Ashleigh Betzler Redford MI 14 5 149 1:02:16 20:05/M
11 Clare Carpen Livonia MI 141 5 150 1:02:17 20:05/M
12 Carrington Board Redford MI 20 7 162 1:02:47 20:15/M


Male 10 to 19
Total
Place Name City Bib No Age Overall Time Pace
1 Jason McComb Livonia MI 4 14 10 23:57 7:44/M
2 Tim Gordon 218 14 12 24:24 7:52/M
3 Stephen Hawn Redford MI 193 13 17 25:37 8:16/M
4 Benjamin Hawn Redford MI 195 15 23 27:20 8:49/M
5 Patrick Jr Fox Redford MI 30 13 32 29:15 9:26/M
6 Tony Buscemi Redford MI 154 12 37 30:01 9:41/M
7 Bryan Guth Redford MI 182 15 38 30:06 9:43/M
8 Joe McComb Livonia MI 3 11 43 32:20 10:26/M
9 Daniel Hawn Redford MI 194 11 44 32:27 10:28/M
10 Ozzy Nelson-Pawlik Livonia MI 122 13 51 34:05 11:00/M
11 David Collins Redford MI 106 12 65 41:24 13:21/M
12 Luke Jachman Redford MI 75 13 74 45:42 14:45/M
13 Michael McComb Livonia MI 5 16 91 49:52 16:05/M
14 Ben Carr Livonia MI 64 13 96 52:38 16:59/M
15 Sam Grabow Redford MI 177 11 100 54:00 17:25/M
16 St. Peter Spencer 217 15 123 57:22 18:30/M


Female 10 to 19
Total
Place Name City Bib No Age Overall Time Pace
1 Lena Zielke Livonia MI 133 12 20 26:51 8:40/M
2 Katie Gordon Redford MI 221 16 24 27:22 8:50/M
3 Caitlyn Kenney Redford MI 183 13 25 27:42 8:56/M
4 Zemira Treglowne Redford MI 18 10 30 29:12 9:25/M
5 Sophia Jachman Redford MI 74 15 34 29:36 9:33/M
6 Fiona Baughman Redford MI 125 13 45 32:32 10:30/M
7 Sydney Bauer Redford MI 187 14 46 32:35 10:31/M
8 Rachel Sexton 207 13 47 32:50 10:35/M
9 Kaitlyn Miville Redford MI 185 13 50 33:48 10:54/M
10 Anna Vincent Redford MI 200 14 54 35:29 11:27/M
11 Amy Sitarski Redford MI 157 13 56 38:31 12:25/M
12 Anna Damuth Redford MI 76 11 57 38:33 12:26/M
13 Joleena Grabow Redford MI 178 11 63 41:07 13:16/M
14 Sara Collins Redford MI 105 10 64 41:23 13:21/M
15 Abby Sitarski Redford MI 156 10 71 44:34 14:23/M
16 Aliya Vaghy Redford MI 196 10 72 44:35 14:23/M
17 Kelly Rundel 50 18 86 49:28 15:57/M
18 Alexandra Beirkamp Redford MI 142 16 90 49:50 16:05/M
19 Nicole Reece Livonia MI 41 16 114 56:28 18:13/M
20 Marie Williamson Livonia MI 101 16 116 56:36 18:15/M
21 Frankie Nelson-Pawlik Livonia MI 121 11 119 57:02 18:24/M
22 Tori Buscemi Redford MI 153 14 124 57:24 18:31/M
23 Claudia Duggan Redford MI 184 12 144 1:01:55 19:58/M
24 Brianna Betzler Redford MI 15 11 151 1:02:18 20:06/M


Male 20 to 29
Total
Place Name City Bib No Age Overall Time Pace
1 Joseph Gordon Redford MI 219 23 8 23:33 7:36/M


Female 20 to 29
Total
Place Name City Bib No Age Overall Time Pace
1 Beatrice Hilade Redford MI 19 23 31 29:13 9:25/M
2 Amanda Beirkamp Redford MI 146 21 36 29:55 9:39/M
3 Allison Bielski Redford MI 145 20 58 39:20 12:41/M
4 Julie Bushart Redford MI 35 22 97 53:30 17:15/M
5 Chrystal Bruckner Redford MI 137 29 156 1:02:35 20:11/M
6 Meghan Ciechanowski Eastpointe MI 135 29 160 1:02:44 20:14/M


Male 30 to 39
Total
Place Name City Bib No Age Overall Time Pace
1 Christopher Parsell Troy MI 172 37 7 22:16 7:11/M
2 Dan Danic Carleton MI 108 35 9 23:42 7:39/M
3 Michael Cushman Livonia MI 167 32 11 24:15 7:49/M
4 Father Henry Redford MI 2 38 40 30:35 9:52/M
5 Father Kishore Livonia MI 59 36 48 33:18 10:45/M
6 Jamie Olesky Livonia MI 7 38 102 54:06 17:27/M
7 Alan Pawlik Livonia MI 124 39 118 57:02 18:24/M
8 David Zarczynski 214 36 122 57:16 18:28/M
9 Father Charlie Fox 191 36 128 59:02 19:03/M
10 Jeremy Bruckner Redford MI 136 31 157 1:02:41 20:13/M


Female 30 to 39
Total
Place Name City Bib No Age Overall Time Pace
1 Amanda Vaghy Redford MI 197 36 16 25:15 8:09/M
2 Maggie Nelson Livonia MI 123 38 79 47:44 15:24/M
3 Mandy Grabow Redford MI 176 36 101 54:03 17:26/M
4 Allison Wright Redford MI 60 38 112 56:21 18:11/M
5 Shelley Zarczynski 215 35 121 57:14 18:28/M
6 Shannon Rehling 204 33 138 1:01:15 19:45/M
7 Laura Savage Dearborn MI 112 35 139 1:01:17 19:46/M
8 Marianne Betzler Redford MI 12 38 148 1:02:16 20:05/M
9 Jenn Carpen Livonia MI 140 32 161 1:02:46 20:15/M


Male 40 to 49
Total
Place Name City Bib No Age Overall Time Pace
1 Michael Miville Redford MI 186 43 29 28:24 9:10/M
2 Todd Treglowne Redford MI 17 45 33 29:16 9:26/M
3 Joseph Urbiel Detroit MI 97 40 41 32:08 10:22/M
4 George Baughman Jr Redford MI 126 49 62 40:36 13:06/M
5 Phil Messerang Livonia MI 34 49 75 46:05 14:52/M
6 Ron Damuth Redford MI 79 42 111 56:13 18:08/M
7 Phil Hawn Redford MI 192 46 133 1:00:18 19:27/M
8 Albert Betzler Redford MI 11 45 152 1:02:19 20:06/M
9 Joseph Board Redford MI 22 42 165 1:04:24 20:46/M
10 Keith Booms Canton MI 52 46 172 1:07:39 21:49/M
11 Father Socorro Redford MI 1 46 176 1:09:06 22:17/M


Female 40 to 49
Total
Place Name City Bib No Age Overall Time Pace
1 Jennifer Hagarty Livonia MI 132 41 15 24:54 8:02/M
2 Jenny Vincent Redford MI 199 44 18 25:52 8:21/M
3 Laurie Sitarski Redford MI 158 49 19 26:39 8:36/M
4 Beth Bachman Livonia MI 131 41 52 34:06 11:00/M
5 Andrea Belanger Detroit MI 166 41 82 48:49 15:45/M
6 Daylen Kline Redford MI 86 41 84 48:54 15:46/M
7 Sandy Beirkamp Redford MI 143 46 85 49:05 15:50/M
8 Colleen Messerang Livonia MI 32 48 88 49:36 16:00/M
9 Kim Olesky Livonia MI 8 40 104 54:28 17:34/M
10 Patty Williamson Livonia MI 100 49 117 56:37 18:16/M
11 Beth Grabow Redford MI 179 42 127 58:19 18:49/M
12 Kathy Reece Livonia MI 40 49 142 1:01:26 19:49/M
13 Tiffany Board Redford MI 21 41 163 1:03:30 20:29/M
14 Carole Booms Canton MI 51 46 173 1:07:41 21:50/M


Male 50 to 59
Total
Place Name City Bib No Age Overall Time Pace
1 John Keenan 210 56 5 21:12 6:50/M
2 Neil Martiuzzi Redford MI 99 52 13 24:50 8:01/M
3 Jim Zittel Waterford MI 228 51 27 27:51 8:59/M
4 Stanley Urbiel Northville MI 148 59 42 32:09 10:22/M
5 Matt Jachman Redford MI 73 53 49 33:22 10:46/M
6 Thomas Gallagher Redford MI 48 54 53 35:25 11:25/M
7 Michael Stack Redford MI 147 55 55 38:13 12:20/M
8 Robert Zimmerman Redford MI 37 56 73 44:53 14:29/M
9 Daniel Bushart Redford MI 36 57 98 53:32 17:16/M
10 Tom Emerick Dewitt MI 65 56 107 55:03 17:45/M
11 Mike Reece Livonia MI 39 52 115 56:28 18:13/M
12 John Dziurgot Redford MI 81 59 125 58:12 18:46/M
13 Bob Miller 223 57 126 58:14 18:47/M
14 Perry Danver Livonia MI 53 57 140 1:01:24 19:48/M
15 Joe Buscemi Redford MI 151 55 171 1:07:15 21:42/M


Female 50 to 59
Total
Place Name City Bib No Age Overall Time Pace
1 Teresa Gordon Marysville MI 222 53 22 27:01 8:43/M
2 Christine Zittel Waterford MI 227 50 26 27:45 8:57/M
3 Maria Martiuzzi Redford MI 98 52 59 40:26 13:03/M
4 Marikae Brehm Redford MI 165 55 60 40:27 13:03/M
5 Kristina Brake Redford MI 155 55 61 40:29 13:04/M
6 Beth Jachman Redford MI 72 53 66 41:26 13:22/M
7 Mary Ziginow Redford MI 25 55 81 48:29 15:38/M
8 Cecilia Gallagher Redford MI 49 53 87 49:29 15:58/M
9 Linda Thompson Redford MI 10 55 89 49:37 16:00/M
10 Frances Rea Detroit MI 24 53 92 49:53 16:05/M
11 Corinna Weber 213 58 129 59:05 19:04/M
12 Tina Buscemi Redford MI 152 52 134 1:00:55 19:39/M
13 Olivia Pisano Eastpointe MI 202 53 135 1:00:56 19:39/M
14 Anne Howell Livonia MI 55 57 141 1:01:25 19:49/M
15 Nancy Burger Jackson MI 107 57 143 1:01:27 19:49/M
16 Clare Keenan 211 53 145 1:01:59 20:00/M
17 Ellen Manion 209 59 146 1:02:00 20:00/M
18 Sue Daly Livonia MI 127 56 153 1:02:31 20:10/M
19 Kathryn Therrien Redford MI 175 56 154 1:02:32 20:10/M
20 Rosemary Fox Redford MI 190 57 155 1:02:34 20:11/M
21 Cheryl Rosa Redford MI 138 58 158 1:02:42 20:14/M
22 Pam Barr Shelby Township MI 80 59 170 1:07:01 21:37/M


Male 60 & up
Total
Place Name City Bib No Age Overall Time Pace
1 Tom Whalen 226 82 99 53:52 17:23/M
2 Judy Urbiel Livonia MI 149 62 108 55:07 17:47/M
3 Francis Urbiel Livonia MI 150 62 109 55:08 17:47/M
4 Roger Weber 212 62 130 59:06 19:04/M
5 Chuck Fox Redford MI 29 62 131 59:09 19:05/M
6 John Bassauras Redford MI 162 63 132 1:00:11 19:25/M
7 Ross Pisano Eastpointe MI 201 65 136 1:00:57 19:40/M
8 George Rosa Redford MI 139 60 159 1:02:44 20:14/M


Female 60 & up
Total
Place Name City Bib No Age Overall Time Pace
1 Suzanne Mote Redford MI 61 64 93 50:13 16:12/M
2 Joan Emerick Dewitt MI 66 61 106 55:01 17:45/M
3 Sylvia Snigier Redford MI 58 61 110 55:37 17:56/M
4 Kathie Pfander Livonia MI 57 69 167 1:06:33 21:28/M
5 Pat Bachman Redford MI 104 73 168 1:06:37 21:29/M